createdAt,value
2023-06-21T00:00:02.414Z,2.60
2023-06-21T00:02:29.939Z,2.22
2023-06-21T00:04:57.087Z,2.38
2023-06-21T00:07:25.339Z,2.70
2023-06-21T00:09:53.745Z,2.28
2023-06-21T00:12:21.778Z,2.55
2023-06-21T00:14:48.816Z,2.13
2023-06-21T00:17:15.837Z,2.10
2023-06-21T00:19:42.702Z,2.42
2023-06-21T00:22:09.705Z,2.30
2023-06-21T00:24:37.683Z,2.33
2023-06-21T00:27:04.632Z,2.30
2023-06-21T00:29:31.465Z,2.30
2023-06-21T00:31:59.791Z,2.30
2023-06-21T00:34:26.628Z,2.63
2023-06-21T00:36:54.160Z,2.40
2023-06-21T00:39:21.590Z,2.53
2023-06-21T00:41:49.302Z,2.00
2023-06-21T00:46:43.229Z,1.88
2023-06-21T00:49:10.882Z,2.20
2023-06-21T00:51:39.631Z,2.60
2023-06-21T00:54:10.395Z,2.40
2023-06-21T00:56:37.494Z,2.35
2023-06-21T00:59:05.877Z,2.13
2023-06-21T01:01:35.619Z,2.50
2023-06-21T01:04:02.873Z,2.17
2023-06-21T01:06:49.312Z,2.20
2023-06-21T01:09:54.618Z,2.47
2023-06-21T01:12:38.585Z,2.40
2023-06-21T01:15:11.871Z,2.30
2023-06-21T01:17:41.581Z,2.42
2023-06-21T01:20:20.177Z,2.25
2023-06-21T01:22:53.352Z,2.45
2023-06-21T01:26:04.891Z,2.38
2023-06-21T01:28:54.934Z,2.25
2023-06-21T01:31:24.472Z,2.35
2023-06-21T01:33:52.740Z,2.33
2023-06-21T01:36:19.811Z,2.67
2023-06-21T01:38:46.788Z,2.38
2023-06-21T01:41:13.974Z,2.17
2023-06-21T01:43:41.357Z,2.40
2023-06-21T01:46:11.990Z,2.00
2023-06-21T01:48:39.686Z,2.25
2023-06-21T01:51:09.381Z,2.00
2023-06-21T01:53:37.625Z,1.98
2023-06-21T01:56:09.941Z,2.50
2023-06-21T01:58:36.933Z,2.20
2023-06-21T02:01:05.117Z,2.35
2023-06-21T02:03:33.109Z,2.65
2023-06-21T02:06:08.722Z,2.20
2023-06-21T02:08:37.355Z,2.30
2023-06-21T02:11:04.984Z,2.08
2023-06-21T02:13:32.158Z,2.33
2023-06-21T02:15:58.947Z,2.63
2023-06-21T02:18:28.785Z,2.38
2023-06-21T02:20:55.808Z,2.83
2023-06-21T02:23:22.578Z,2.50
2023-06-21T02:25:49.545Z,2.20
2023-06-21T02:28:17.951Z,2.25
2023-06-21T02:30:44.807Z,2.45
2023-06-21T02:33:12.462Z,2.13
2023-06-21T02:35:39.549Z,2.20
2023-06-21T02:38:06.646Z,2.30
2023-06-21T02:40:34.501Z,2.20
2023-06-21T02:45:28.142Z,1.83
2023-06-21T02:47:54.975Z,2.70
2023-06-21T02:50:21.794Z,2.20
2023-06-21T02:52:50.902Z,1.98
2023-06-21T02:55:18.045Z,2.20
2023-06-21T02:57:45.952Z,2.40
2023-06-21T03:02:47.958Z,1.98
2023-06-21T03:05:15.187Z,2.15
2023-06-21T03:07:48.115Z,2.17
2023-06-21T03:10:16.024Z,2.17
2023-06-21T03:12:44.644Z,2.00
2023-06-21T03:15:12.368Z,2.30
2023-06-21T03:17:40.871Z,2.40
2023-06-21T03:20:15.425Z,2.03
2023-06-21T03:22:43.114Z,2.70
2023-06-21T03:25:11.560Z,2.70
2023-06-21T03:27:38.866Z,2.22
2023-06-21T03:30:08.023Z,2.25
2023-06-21T03:32:34.923Z,2.20
2023-06-21T03:35:01.879Z,2.57
2023-06-21T03:37:29.076Z,2.50
2023-06-21T03:39:55.970Z,2.72
2023-06-21T03:42:22.964Z,2.60
2023-06-21T03:44:50.091Z,2.43
2023-06-21T03:47:16.981Z,2.47
2023-06-21T03:49:44.228Z,2.30
2023-06-21T03:52:11.180Z,2.30
2023-06-21T03:54:37.976Z,2.33
2023-06-21T03:57:04.992Z,2.28
2023-06-21T03:59:31.762Z,2.30
2023-06-21T04:01:58.557Z,2.78
2023-06-21T04:04:25.385Z,2.10
2023-06-21T04:06:53.244Z,2.00
2023-06-21T04:09:21.382Z,2.35
2023-06-21T04:11:48.128Z,2.23
2023-06-21T04:14:16.669Z,2.08
2023-06-21T04:16:44.392Z,2.20
2023-06-21T04:21:38.029Z,1.90
2023-06-21T04:24:05.272Z,1.83
2023-06-21T04:26:32.309Z,2.10
2023-06-21T04:29:02.398Z,2.15
2023-06-21T04:31:30.185Z,2.15
2023-06-21T04:33:57.186Z,2.55
2023-06-21T04:36:26.013Z,3.17
2023-06-21T04:38:52.823Z,2.53
2023-06-21T04:41:20.526Z,2.40
2023-06-21T04:46:15.224Z,2.10
2023-06-21T04:48:42.512Z,2.50
2023-06-21T04:51:09.307Z,2.65
2023-06-21T04:53:36.164Z,2.33
2023-06-21T04:56:03.078Z,2.60
2023-06-21T04:58:36.767Z,2.85
2023-06-21T05:01:04.016Z,2.35
2023-06-21T05:03:34.188Z,2.53
2023-06-21T05:06:02.221Z,2.35
2023-06-21T05:08:29.548Z,3.10
2023-06-21T05:10:56.850Z,2.72
2023-06-21T05:13:23.697Z,2.38
2023-06-21T05:15:50.652Z,3.10
2023-06-21T05:18:17.889Z,2.67
2023-06-21T05:20:44.611Z,2.90
2023-06-21T05:23:18.752Z,2.50
2023-06-21T05:25:45.649Z,2.70
2023-06-21T05:28:12.422Z,2.53
2023-06-21T05:30:39.512Z,2.65
2023-06-21T05:33:06.599Z,2.45
2023-06-21T05:35:36.445Z,2.25
2023-06-21T05:38:03.470Z,3.00
2023-06-21T05:40:30.554Z,2.55
2023-06-21T05:43:02.463Z,2.47
2023-06-21T05:45:30.391Z,2.55
2023-06-21T05:48:01.677Z,2.50
2023-06-21T05:50:31.761Z,2.63
2023-06-21T05:52:59.666Z,2.80
2023-06-21T05:55:26.787Z,2.50
2023-06-21T05:57:53.536Z,2.50
2023-06-21T06:00:20.524Z,2.45
2023-06-21T06:02:47.412Z,2.55
2023-06-21T06:05:15.441Z,2.78
2023-06-21T06:07:42.390Z,2.72
2023-06-21T06:10:10.080Z,2.25
2023-06-21T06:12:36.977Z,2.38
2023-06-21T06:15:04.341Z,2.08
2023-06-21T06:19:58.782Z,1.92
2023-06-21T06:22:26.286Z,2.13
2023-06-21T06:24:53.715Z,2.10
2023-06-21T06:27:20.485Z,2.50
2023-06-21T06:29:47.256Z,2.38
2023-06-21T06:32:14.206Z,2.50
2023-06-21T06:34:41.187Z,2.90
2023-06-21T06:37:14.511Z,2.38
2023-06-21T06:39:42.760Z,2.10
2023-06-21T06:42:11.657Z,2.40
2023-06-21T06:44:38.823Z,2.00
2023-06-21T06:47:07.770Z,2.15
2023-06-21T06:49:35.038Z,2.42
2023-06-21T06:54:28.653Z,2.17
2023-06-21T06:56:55.592Z,2.20
2023-06-21T06:59:23.608Z,2.15
2023-06-21T07:01:51.226Z,1.95
2023-06-21T07:04:18.458Z,2.03
2023-06-21T07:06:45.476Z,1.75
2023-06-21T07:09:12.333Z,2.10
2023-06-21T07:11:39.486Z,2.10
2023-06-21T07:16:36.736Z,1.55
2023-06-21T07:19:06.686Z,2.10
2023-06-21T07:21:33.874Z,1.65
2023-06-21T07:26:27.685Z,1.75
2023-06-21T07:28:54.444Z,1.90
2023-06-21T07:31:21.386Z,1.85
2023-06-21T07:33:50.711Z,1.85
2023-06-21T07:36:26.086Z,1.70
2023-06-21T07:38:53.535Z,2.03
2023-06-21T07:41:20.593Z,1.88
2023-06-21T07:48:43.495Z,1.70
2023-06-21T07:51:11.347Z,1.98
2023-06-21T07:53:38.268Z,1.50
2023-06-21T07:56:05.803Z,1.88
2023-06-21T07:58:32.656Z,2.00
2023-06-21T08:00:59.420Z,1.70
2023-06-21T08:03:26.415Z,2.03
2023-06-21T08:08:21.358Z,1.58
2023-06-21T08:10:48.205Z,1.58
2023-06-21T08:13:18.415Z,1.75
2023-06-21T08:15:45.728Z,1.70
2023-06-21T08:18:12.605Z,1.88
2023-06-21T08:20:41.914Z,1.58
2023-06-21T08:23:09.894Z,1.80
2023-06-21T08:25:37.330Z,2.00
2023-06-21T08:28:04.995Z,2.20
2023-06-21T08:30:32.127Z,1.88
2023-06-21T08:32:58.987Z,1.90
2023-06-21T08:35:26.050Z,1.90
2023-06-21T08:37:57.622Z,3.67
2023-06-21T08:40:34.787Z,1.52
2023-06-21T08:43:02.356Z,1.90
2023-06-21T08:45:29.606Z,1.98
2023-06-21T08:48:02.447Z,2.30
2023-06-21T08:50:31.039Z,2.03
2023-06-21T08:53:04.109Z,2.00
2023-06-21T08:55:33.198Z,1.85
2023-06-21T08:58:16.161Z,1.73
2023-06-21T09:00:51.378Z,2.20
2023-06-21T09:04:00.361Z,1.73
2023-06-21T09:06:28.440Z,1.83
2023-06-21T09:08:55.609Z,2.20
2023-06-21T09:11:24.052Z,2.10
2023-06-21T09:13:54.549Z,2.05
2023-06-21T09:16:21.752Z,2.00
2023-06-21T09:18:49.124Z,1.77
2023-06-21T09:21:16.971Z,2.05
2023-06-21T09:23:45.989Z,1.77
2023-06-21T09:26:13.113Z,1.77
2023-06-21T09:28:40.297Z,1.95
2023-06-21T09:31:07.298Z,2.00
2023-06-21T09:36:01.450Z,1.90
2023-06-21T09:38:32.984Z,2.00
2023-06-21T09:41:02.725Z,1.88
2023-06-21T09:43:29.819Z,1.73
2023-06-21T09:48:27.191Z,2.10
2023-06-21T09:50:57.342Z,1.80
2023-06-21T09:53:25.696Z,1.73
2023-06-21T09:55:52.699Z,1.98
2023-06-21T10:00:46.571Z,1.65
2023-06-21T10:03:14.074Z,1.92
2023-06-21T10:05:57.227Z,1.58
2023-06-21T10:08:33.306Z,1.92
2023-06-21T10:11:01.440Z,1.95
2023-06-21T10:13:29.740Z,2.00
2023-06-21T10:15:57.631Z,2.08
2023-06-21T10:18:25.235Z,1.98
2023-06-21T10:20:58.484Z,1.70
2023-06-21T10:23:32.895Z,2.00
2023-06-21T10:26:10.141Z,1.80
2023-06-21T10:28:38.933Z,2.00
2023-06-21T10:31:05.966Z,1.67
2023-06-21T10:36:04.415Z,1.70
2023-06-21T10:38:45.840Z,2.20
2023-06-21T10:41:15.505Z,2.25
2023-06-21T10:43:44.452Z,1.85
2023-06-21T10:46:12.751Z,1.80
2023-06-21T10:48:41.522Z,1.95
2023-06-21T10:51:11.388Z,1.85
2023-06-21T10:53:40.247Z,1.90
2023-06-21T10:56:07.123Z,1.73
2023-06-21T10:58:34.148Z,2.10
2023-06-21T11:03:28.864Z,2.10
2023-06-21T11:05:57.719Z,1.90
2023-06-21T11:08:32.080Z,1.83
2023-06-21T11:11:08.182Z,2.03
2023-06-21T11:13:37.697Z,2.25
2023-06-21T11:16:30.892Z,1.92
2023-06-21T11:19:00.204Z,1.88
2023-06-21T11:21:46.619Z,1.80
2023-06-21T11:26:57.223Z,2.08
2023-06-21T11:29:26.023Z,1.88
2023-06-21T11:32:08.583Z,1.92
2023-06-21T11:34:35.532Z,1.95
2023-06-21T11:40:00.112Z,1.80
2023-06-21T11:42:29.222Z,1.98
2023-06-21T11:44:56.999Z,1.95
2023-06-21T11:47:23.899Z,2.25
2023-06-21T11:49:59.074Z,1.90
2023-06-21T11:52:34.617Z,2.10
2023-06-21T11:55:14.382Z,2.17
2023-06-21T11:57:45.526Z,2.00
2023-06-21T12:00:13.690Z,1.92
2023-06-21T12:02:40.824Z,1.88
2023-06-21T12:07:40.498Z,1.77
2023-06-21T12:10:08.045Z,1.80
2023-06-21T12:12:35.267Z,1.90
2023-06-21T12:15:02.295Z,2.10
2023-06-21T12:17:29.466Z,1.85
2023-06-21T12:20:03.093Z,2.15
2023-06-21T12:22:29.862Z,1.88
2023-06-21T12:24:56.830Z,2.03
2023-06-21T12:32:21.903Z,1.77
2023-06-21T12:34:49.653Z,1.90
2023-06-21T12:37:20.664Z,1.73
2023-06-21T12:39:54.880Z,2.00
2023-06-21T12:42:22.197Z,1.80
2023-06-21T12:44:49.285Z,2.30
2023-06-21T12:49:48.552Z,1.80
2023-06-21T12:52:15.471Z,2.25
2023-06-21T12:54:58.038Z,2.30
2023-06-21T12:57:33.090Z,2.63
2023-06-21T13:00:00.075Z,2.42
2023-06-21T13:02:29.831Z,2.55
2023-06-21T13:04:57.577Z,1.90
2023-06-21T13:07:24.595Z,2.00
2023-06-21T13:09:51.850Z,1.83
2023-06-21T13:12:18.855Z,2.10
2023-06-21T13:14:45.679Z,2.05
2023-06-21T13:17:12.542Z,2.20
2023-06-21T13:19:40.132Z,1.98
2023-06-21T13:22:09.960Z,2.10
2023-06-21T13:24:36.722Z,2.05
2023-06-21T13:27:03.610Z,1.92
2023-06-21T13:29:31.432Z,1.90
2023-06-21T13:31:58.752Z,2.22
2023-06-21T13:34:25.858Z,1.92
2023-06-21T13:39:20.124Z,1.70
2023-06-21T13:44:14.142Z,1.90
2023-06-21T13:46:41.178Z,2.00
2023-06-21T13:51:36.490Z,2.30
2023-06-21T13:54:03.432Z,1.85
2023-06-21T13:56:30.845Z,2.15
2023-06-21T13:58:57.908Z,2.13
2023-06-21T14:03:53.219Z,2.00
2023-06-21T14:06:20.736Z,1.75
2023-06-21T14:08:48.319Z,2.05
2023-06-21T14:11:15.466Z,2.20
2023-06-21T14:13:42.611Z,1.88
2023-06-21T14:16:09.820Z,2.60
2023-06-21T14:18:47.067Z,1.85
2023-06-21T14:21:17.468Z,2.20
2023-06-21T14:23:44.902Z,2.08
2023-06-21T14:26:12.687Z,1.75
2023-06-21T14:28:42.454Z,1.58
2023-06-21T14:31:09.874Z,2.33
2023-06-21T14:33:37.286Z,1.70
2023-06-21T14:36:04.432Z,2.22
2023-06-21T14:41:01.286Z,2.03
2023-06-21T14:43:28.294Z,2.08
2023-06-21T14:45:57.896Z,2.20
2023-06-21T14:48:25.106Z,1.80
2023-06-21T14:50:52.302Z,2.47
2023-06-21T14:53:19.631Z,2.25
2023-06-21T14:55:47.040Z,1.90
2023-06-21T14:58:14.786Z,1.95
2023-06-21T15:00:42.109Z,1.80
2023-06-21T15:03:09.812Z,2.05
2023-06-21T15:05:37.593Z,1.80
2023-06-21T15:08:05.257Z,2.10
2023-06-21T15:10:33.666Z,2.22
2023-06-21T15:13:02.593Z,2.30
2023-06-21T15:15:30.502Z,2.30
2023-06-21T15:17:59.989Z,2.33
2023-06-21T15:20:26.951Z,2.17
2023-06-21T15:22:56.717Z,2.20
2023-06-21T15:25:24.865Z,1.85
2023-06-21T15:27:52.602Z,1.85
2023-06-21T15:30:19.783Z,2.15
2023-06-21T15:35:16.441Z,1.88
2023-06-21T15:37:43.374Z,2.00
2023-06-21T15:40:10.649Z,1.95
2023-06-21T15:42:40.287Z,2.03
2023-06-21T15:45:08.605Z,2.13
2023-06-21T15:47:35.765Z,2.10
2023-06-21T15:52:38.780Z,1.65
2023-06-21T15:55:06.460Z,2.40
2023-06-21T15:57:34.451Z,2.20
2023-06-21T16:00:02.934Z,2.10
2023-06-21T16:02:30.299Z,2.40
2023-06-21T16:04:57.289Z,2.30
2023-06-21T16:07:24.121Z,2.35
2023-06-21T16:09:51.484Z,2.10
2023-06-21T16:12:18.643Z,2.30
2023-06-21T16:14:45.600Z,2.72
2023-06-21T16:17:14.816Z,2.47
2023-06-21T16:19:41.693Z,2.28
2023-06-21T16:22:08.747Z,2.67
2023-06-21T16:24:35.864Z,2.47
2023-06-21T16:31:56.855Z,2.53
2023-06-21T16:34:24.035Z,2.60
2023-06-21T16:36:51.119Z,2.33
2023-06-21T16:39:18.476Z,2.42
2023-06-21T16:46:41.500Z,2.15
2023-06-21T16:49:10.882Z,2.40
2023-06-21T16:51:37.843Z,2.42
2023-06-21T16:54:05.164Z,2.35
2023-06-21T16:58:59.030Z,2.38
2023-06-21T17:01:26.060Z,2.80
2023-06-21T17:03:56.148Z,2.47
2023-06-21T17:06:25.602Z,2.72
2023-06-21T17:08:55.783Z,2.40
2023-06-21T17:11:24.193Z,2.97
2023-06-21T17:13:53.994Z,2.60
2023-06-21T17:16:21.623Z,2.40
2023-06-21T17:18:49.752Z,2.55
2023-06-21T17:21:16.958Z,2.67
2023-06-21T17:23:43.933Z,2.10
2023-06-21T17:26:10.905Z,2.40
2023-06-21T17:28:38.280Z,2.25
2023-06-21T17:31:05.402Z,2.70
2023-06-21T17:33:33.335Z,2.55
2023-06-21T17:36:00.273Z,2.90
2023-06-21T17:38:27.662Z,2.50
2023-06-21T17:43:21.301Z,2.40
2023-06-21T17:45:48.441Z,2.58
2023-06-21T17:48:15.382Z,2.70
2023-06-21T17:50:42.381Z,2.65
2023-06-21T17:53:09.390Z,2.58
2023-06-21T17:55:36.493Z,2.50
2023-06-21T17:58:04.420Z,2.65
2023-06-21T18:00:32.174Z,3.00
2023-06-21T18:02:59.262Z,2.75
2023-06-21T18:05:27.034Z,2.70
2023-06-21T18:07:54.443Z,2.97
2023-06-21T18:10:21.479Z,2.80
2023-06-21T18:12:48.455Z,2.55
2023-06-21T18:15:15.352Z,2.92
2023-06-21T18:17:42.294Z,3.83
2023-06-21T18:20:10.152Z,3.25
2023-06-21T18:22:43.005Z,3.38
2023-06-21T18:25:10.792Z,3.25
2023-06-21T18:27:38.182Z,2.75
2023-06-21T18:32:40.636Z,2.80
2023-06-21T18:35:10.159Z,2.63
2023-06-21T18:37:39.598Z,3.00
2023-06-21T18:40:08.427Z,2.72
2023-06-21T18:42:36.007Z,2.80
2023-06-21T18:47:30.297Z,2.42
2023-06-21T18:50:00.306Z,2.53
2023-06-21T18:52:27.590Z,2.80
2023-06-21T18:54:57.726Z,2.67
2023-06-21T18:57:24.883Z,2.60
2023-06-21T18:59:51.833Z,2.80
2023-06-21T19:02:19.250Z,2.50
2023-06-21T19:04:46.497Z,2.83
2023-06-21T19:07:15.841Z,2.80
2023-06-21T19:09:43.826Z,2.60
2023-06-21T19:12:10.933Z,2.55
2023-06-21T19:14:38.346Z,2.42
2023-06-21T19:17:07.679Z,2.60
2023-06-21T19:19:34.627Z,3.00
2023-06-21T19:22:01.922Z,2.58
2023-06-21T19:24:29.197Z,2.65
2023-06-21T19:26:56.199Z,2.63
2023-06-21T19:29:23.166Z,2.70
2023-06-21T19:31:50.669Z,3.10
2023-06-21T19:34:19.302Z,2.88
2023-06-21T19:36:46.358Z,2.65
2023-06-21T19:39:13.313Z,2.90
2023-06-21T19:41:41.306Z,2.88
2023-06-21T19:44:08.547Z,2.90
2023-06-21T19:46:35.980Z,3.13
2023-06-21T19:49:03.067Z,3.28
2023-06-21T19:51:35.056Z,2.70
2023-06-21T19:54:02.591Z,3.05
2023-06-21T19:56:29.880Z,3.10
2023-06-21T19:58:58.219Z,2.75
2023-06-21T20:01:25.761Z,3.17
2023-06-21T20:06:22.880Z,2.80
2023-06-21T20:08:49.836Z,3.20
2023-06-21T20:11:19.774Z,2.88
2023-06-21T20:13:47.442Z,3.30
2023-06-21T20:16:14.432Z,3.20
2023-06-21T20:18:41.861Z,3.13
2023-06-21T20:21:10.880Z,2.63
2023-06-21T20:23:38.139Z,2.80
2023-06-21T20:26:05.106Z,2.97
2023-06-21T20:40:44.830Z,2.88
2023-06-21T20:43:20.039Z,3.00
2023-06-21T20:45:58.306Z,3.20
2023-06-21T20:48:26.149Z,3.15
2023-06-21T20:50:53.770Z,3.25
2023-06-21T20:55:48.852Z,2.85
2023-06-21T20:58:28.810Z,3.25
2023-06-21T21:00:59.138Z,3.03
2023-06-21T21:03:28.201Z,2.92
2023-06-21T21:05:56.228Z,2.95
2023-06-21T21:08:25.987Z,2.88
2023-06-21T21:10:56.656Z,3.05
2023-06-21T21:13:23.596Z,3.35
2023-06-21T21:15:51.520Z,3.72
2023-06-21T21:18:18.798Z,3.05
2023-06-21T21:20:48.708Z,3.13
2023-06-21T21:23:16.084Z,3.28
2023-06-21T21:25:43.976Z,3.15
2023-06-21T21:28:17.865Z,3.30
2023-06-21T21:30:47.549Z,3.42
2023-06-21T21:33:15.015Z,3.20
2023-06-21T21:35:45.304Z,3.22
2023-06-21T21:38:12.744Z,3.10
2023-06-21T21:40:39.955Z,3.35
2023-06-21T21:43:06.978Z,3.20
2023-06-21T21:45:36.170Z,3.10
2023-06-21T21:48:04.220Z,2.83
2023-06-21T21:50:31.938Z,3.42
2023-06-21T21:55:30.655Z,2.85
2023-06-21T21:58:00.762Z,3.50
2023-06-21T22:00:28.386Z,3.20
2023-06-21T22:02:55.678Z,3.15
2023-06-21T22:05:23.185Z,2.83
2023-06-21T22:07:50.950Z,3.25
2023-06-21T22:10:36.185Z,3.20
2023-06-21T22:13:06.975Z,3.20
2023-06-21T22:15:34.175Z,2.97
2023-06-21T22:18:02.766Z,2.88
2023-06-21T22:20:31.084Z,3.08
2023-06-21T22:22:58.857Z,3.67
2023-06-21T22:25:26.354Z,2.95
2023-06-21T22:27:53.834Z,2.83
2023-06-21T22:30:20.972Z,3.08
2023-06-21T22:32:47.921Z,3.60
2023-06-21T22:35:15.073Z,2.90
2023-06-21T22:37:42.296Z,2.95
2023-06-21T22:40:10.796Z,2.97
2023-06-21T22:42:40.779Z,3.03
2023-06-21T22:45:08.487Z,3.00
2023-06-21T22:50:10.260Z,2.78
2023-06-21T22:52:37.495Z,2.88
2023-06-21T22:55:05.445Z,3.20
2023-06-21T22:57:32.567Z,2.80
2023-06-21T23:00:00.681Z,3.42
2023-06-21T23:02:28.191Z,2.92
2023-06-21T23:04:55.625Z,3.03
2023-06-21T23:07:22.609Z,3.20
2023-06-21T23:09:49.501Z,3.30
2023-06-21T23:12:17.128Z,3.22
2023-06-21T23:17:12.731Z,2.67
2023-06-21T23:19:48.850Z,3.63
2023-06-21T23:22:19.949Z,3.35
2023-06-21T23:24:52.263Z,2.95
2023-06-21T23:27:19.639Z,3.10
2023-06-21T23:29:47.757Z,3.45
2023-06-21T23:32:26.040Z,3.20
2023-06-21T23:34:53.346Z,3.60
2023-06-21T23:37:22.157Z,3.20
2023-06-21T23:39:55.283Z,3.25
2023-06-21T23:42:26.012Z,3.20
2023-06-21T23:44:54.630Z,3.10
2023-06-21T23:47:21.859Z,3.20
2023-06-21T23:49:49.714Z,3.03
2023-06-21T23:54:44.545Z,3.05
2023-06-21T23:57:14.795Z,3.30
2023-06-21T23:59:42.140Z,3.50
